Time;durP1;ratioP1;P1;durP2;ratioP2;P2;SDS_P1;SDS_P2;PMS_P1;PMS_P2;Temp;Humidity;BMP_temperature;BMP_pressure;BME280_temperature;BME280_humidity;BME280_pressure;Samples;Min_cycle;Max_cycle;Signal;HPM_P1;HPM_P2
2022/09/17 00:01:46;;;;;;;4.35;1.20;;;;;;;20.42;47.74;101293.75;5031710;28;20452;-68
2022/09/17 00:04:11;;;;;;;3.10;0.90;;;;;;;20.41;48.08;101305.31;5031601;28;20036;-69
2022/09/17 00:06:37;;;;;;;3.45;1.00;;;;;;;20.35;47.79;101299.69;5031464;28;20024;-68
2022/09/17 00:09:05;;;;;;;2.83;0.93;;;;;;;20.33;47.69;101299.81;5031306;28;20025;-69
2022/09/17 00:11:33;;;;;;;3.47;1.00;;;;;;;20.27;47.87;101298.53;5031445;28;20289;-69
2022/09/17 00:14:00;;;;;;;3.00;0.90;;;;;;;20.32;47.77;101307.91;5031375;28;20489;-68
2022/09/17 00:16:32;;;;;;;3.95;1.02;;;;;;;20.31;48.03;101307.03;5031051;28;20036;-69
2022/09/17 00:18:59;;;;;;;4.75;1.08;;;;;;;20.28;47.79;101308.16;5031413;28;20036;-70
2022/09/17 00:21:25;;;;;;;4.82;0.90;;;;;;;20.33;48.02;101314.84;5030942;28;20528;-68
2022/09/17 00:23:59;;;;;;;3.13;1.00;;;;;;;20.33;47.97;101320.13;5030907;28;20029;-69
2022/09/17 00:26:25;;;;;;;3.47;1.10;;;;;;;20.25;48.00;101304.91;5030817;28;20129;-71
2022/09/17 00:28:52;;;;;;;3.45;0.98;;;;;;;20.25;47.91;101303.09;5031336;28;20040;-69
2022/09/17 00:31:17;;;;;;;5.85;1.20;;;;;;;20.25;48.21;101302.25;5031003;28;20079;-69
2022/09/17 00:33:43;;;;;;;3.38;0.88;;;;;;;20.27;47.94;101308.28;5034832;28;20061;-71
2022/09/17 00:36:08;;;;;;;2.63;0.80;;;;;;;20.26;48.17;101314.53;5037708;28;20091;-70
2022/09/17 00:38:33;;;;;;;2.40;0.93;;;;;;;20.25;47.93;101311.06;5037702;28;20030;-69
2022/09/17 00:40:59;;;;;;;3.92;1.00;;;;;;;20.18;48.16;101303.75;5037526;28;20271;-69
2022/09/17 00:43:43;;;;;;;3.70;1.10;;;;;;;20.17;48.20;101317.94;5037559;28;20477;-68
2022/09/17 00:46:22;;;;;;;3.50;1.00;;;;;;;20.15;48.18;101320.69;5037897;28;20032;-70
2022/09/17 00:48:48;;;;;;;4.38;1.15;;;;;;;20.15;48.27;101320.69;5036842;28;20037;-69
2022/09/17 00:51:19;;;;;;;4.43;1.23;;;;;;;20.20;48.59;101328.25;5037159;28;20476;-69
2022/09/17 00:53:44;;;;;;;3.38;0.90;;;;;;;20.19;47.96;101316.84;5037290;28;20065;-68
2022/09/17 00:56:21;;;;;;;4.30;0.80;;;;;;;20.12;47.76;101305.06;5036630;28;20424;-70
2022/09/17 00:58:47;;;;;;;3.35;1.48;;;;;;;20.18;48.07;101320.44;5036678;28;20361;-69
2022/09/17 01:01:13;;;;;;;3.95;0.98;;;;;;;20.19;47.88;101329.25;5037156;28;20028;-70
2022/09/17 01:03:38;;;;;;;4.25;0.90;;;;;;;20.15;48.00;101322.50;5036797;28;20041;-70
2022/09/17 01:06:21;;;;;;;3.87;1.40;;;;;;;20.19;48.23;101338.00;5037113;28;20036;-69
2022/09/17 01:09:06;;;;;;;3.38;1.00;;;;;;;20.10;48.21;101322.88;5037692;28;20825;-68
2022/09/17 01:11:51;;;;;;;3.53;0.93;;;;;;;20.13;48.28;101330.56;5037837;28;20094;-69
2022/09/17 01:14:55;;;;;;;4.28;0.90;;;;;;;20.14;48.28;101334.91;5036888;28;20037;-71
2022/09/17 01:18:06;;;;;;;3.78;0.88;;;;;;;20.10;48.37;101326.38;5037408;28;20025;-69
2022/09/17 01:20:40;;;;;;;2.83;0.90;;;;;;;20.14;48.14;101326.13;5036563;28;20033;-69
2022/09/17 01:23:24;;;;;;;;;;;;;;;20.13;48.38;101327.09;5038222;28;20377;-68
2022/09/17 01:26:08;;;;;;;5.90;0.85;;;;;;;20.09;48.37;101324.72;5036809;28;19913;-69
2022/09/17 01:29:05;;;;;;;5.68;1.00;;;;;;;20.14;48.16;101342.84;5037908;28;20036;-69
2022/09/17 01:31:36;;;;;;;3.70;0.80;;;;;;;20.15;48.18;101341.88;5037444;28;20045;-68
2022/09/17 01:34:30;;;;;;;3.97;0.90;;;;;;;20.13;48.37;101343.81;5036992;28;20128;-69
2022/09/17 01:37:01;;;;;;;4.28;1.02;;;;;;;20.11;48.48;101351.88;5037208;28;20056;-69
2022/09/17 01:39:42;;;;;;;2.55;0.68;;;;;;;20.11;48.25;101349.22;5037348;28;20034;-69
2022/09/17 01:42:17;;;;;;;3.78;0.98;;;;;;;20.15;48.39;101351.63;5037404;28;21452;-69
2022/09/17 01:45:08;;;;;;;3.80;1.10;;;;;;;20.09;48.36;101339.72;5034564;28;20195;-70
2022/09/17 01:47:37;;;;;;;3.53;0.93;;;;;;;19.98;48.42;101330.03;5033720;28;20112;-69
2022/09/17 01:50:09;;;;;;;3.97;0.82;;;;;;;20.08;48.51;101352.13;5033612;28;20115;-69
2022/09/17 01:52:38;;;;;;;2.97;0.85;;;;;;;20.07;48.30;101350.44;5033233;28;20030;-69
2022/09/17 01:55:10;;;;;;;3.92;0.90;;;;;;;20.07;48.30;101350.44;5023671;28;20040;-68
2022/09/17 01:57:41;;;;;;;3.13;0.77;;;;;;;20.07;48.51;101349.59;5034140;28;20029;-69
2022/09/17 02:00:16;;;;;;;4.22;1.10;;;;;;;20.10;48.21;101357.28;5034108;28;20024;-69
2022/09/17 02:02:55;;;;;;;4.00;1.30;;;;;;;19.99;48.10;101334.34;5033465;28;20060;-69
2022/09/17 02:05:31;;;;;;;2.63;0.70;;;;;;;20.02;48.13;101349.97;5033028;28;20396;-70
2022/09/17 02:08:03;;;;;;;3.63;0.80;;;;;;;20.00;48.15;101343.16;5033935;28;20503;-69
2022/09/17 02:10:33;;;;;;;3.50;1.10;;;;;;;20.00;48.50;101343.16;5033075;28;20071;-70
2022/09/17 02:13:15;;;;;;;3.08;0.90;;;;;;;20.02;48.44;101349.97;5033036;28;20123;-71
2022/09/17 02:15:48;;;;;;;5.32;1.77;;;;;;;20.01;48.48;101356.25;5032524;28;20067;-69
2022/09/17 02:18:16;;;;;;;3.25;0.80;;;;;;;20.03;48.34;101354.31;5033695;28;20071;-69
2022/09/17 02:20:51;;;;;;;2.90;0.95;;;;;;;19.97;48.56;101333.63;5033645;28;20037;-69
2022/09/17 02:23:26;;;;;;;3.75;1.23;;;;;;;20.00;48.36;101343.16;5032742;28;20140;-69
2022/09/17 02:25:58;;;;;;;4.25;0.90;;;;;;;20.02;48.43;101357.06;5033116;28;20033;-69
2022/09/17 02:28:37;;;;;;;2.58;0.80;;;;;;;19.99;48.35;101346.75;5033074;28;20029;-69
2022/09/17 02:31:03;;;;;;;2.97;1.10;;;;;;;19.98;48.45;101353.00;5033480;28;20028;-68
2022/09/17 02:33:30;;;;;;;4.78;1.10;;;;;;;20.01;48.28;101364.19;5032662;28;20032;-69
2022/09/17 02:35:56;;;;;;;3.55;0.77;;;;;;;20.01;48.29;101363.31;5032966;28;20067;-70
2022/09/17 02:38:24;;;;;;;4.10;0.95;;;;;;;20.00;48.51;101359.00;5032891;28;20033;-70
2022/09/17 02:40:55;;;;;;;3.78;0.90;;;;;;;19.96;48.47;101355.75;5032469;28;20025;-69
2022/09/17 02:43:24;;;;;;;4.35;1.00;;;;;;;20.01;48.45;101368.63;5032692;28;21232;-69
2022/09/17 02:46:19;;;;;;;4.15;1.17;;;;;;;20.00;48.24;101375.72;5033074;28;20025;-69
2022/09/17 02:49:00;;;;;;;3.58;0.90;;;;;;;20.00;48.18;101375.72;5032464;28;20120;-71
2022/09/17 02:51:43;;;;;;;3.42;0.90;;;;;;;19.97;48.19;101369.84;5032644;28;20033;-69
2022/09/17 02:54:37;;;;;;;3.75;0.90;;;;;;;19.94;48.19;101377.03;5033220;28;20807;-68
2022/09/17 02:57:08;;;;;;;3.53;0.88;;;;;;;19.94;48.41;101376.22;5031739;28;20466;-69
2022/09/17 02:59:46;;;;;;;4.07;1.15;;;;;;;19.91;48.20;101369.34;5032193;28;20150;-69
2022/09/17 03:02:27;;;;;;;4.38;0.90;;;;;;;19.91;48.36;101372.00;5032861;28;20044;-69
2022/09/17 03:04:54;;;;;;;2.47;0.70;;;;;;;19.89;48.27;101363.34;5032718;28;20048;-69
2022/09/17 03:07:21;;;;;;;3.33;0.70;;;;;;;19.92;48.18;101376.34;5032300;28;20033;-69
2022/09/17 03:09:47;;;;;;;4.28;0.90;;;;;;;19.87;48.45;101369.75;5032291;28;20026;-69
2022/09/17 03:12:14;;;;;;;3.67;0.93;;;;;;;19.89;48.04;101370.47;5031981;28;20071;-69
2022/09/17 03:14:39;;;;;;;4.47;1.00;;;;;;;19.78;48.17;101338.75;5032425;28;21205;-68
2022/09/17 03:17:04;;;;;;;3.58;1.02;;;;;;;19.90;48.31;101372.13;5032113;28;20086;-69
2022/09/17 03:19:29;;;;;;;3.88;1.00;;;;;;;19.90;48.01;101374.75;5031980;28;20041;-68
2022/09/17 03:21:55;;;;;;;3.40;0.80;;;;;;;19.90;48.30;101374.75;5032363;28;20037;-70
2022/09/17 03:24:20;;;;;;;5.07;1.20;;;;;;;19.87;48.16;101367.09;5032341;28;20276;-69
2022/09/17 03:26:49;;;;;;;4.72;1.13;;;;;;;19.87;48.31;101364.47;5031551;28;20417;-69
2022/09/17 03:29:15;;;;;;;3.80;0.85;;;;;;;19.83;47.99;101361.19;5032086;28;20035;-70
2022/09/17 03:31:40;;;;;;;3.75;0.95;;;;;;;19.86;48.20;101368.88;5031967;28;20033;-69
2022/09/17 03:34:06;;;;;;;2.40;0.82;;;;;;;19.82;48.06;101354.25;5032066;28;20079;-71
2022/09/17 03:36:32;;;;;;;3.47;0.80;;;;;;;19.87;48.05;101369.75;5031752;28;20385;-69
2022/09/17 03:38:58;;;;;;;2.60;0.80;;;;;;;19.85;48.38;101366.38;5031886;28;20779;-69
2022/09/17 03:41:24;;;;;;;4.55;1.15;;;;;;;19.81;48.41;101359.66;5031445;28;20032;-70
2022/09/17 03:43:50;;;;;;;4.85;0.90;;;;;;;19.69;47.90;101351.72;5031835;28;20048;-69
2022/09/17 03:46:16;;;;;;;3.63;0.80;;;;;;;19.78;48.22;101355.44;5031256;28;20029;-69
2022/09/17 03:48:41;;;;;;;4.57;1.02;;;;;;;19.76;48.19;101344.16;5031659;28;20029;-69
2022/09/17 03:51:07;;;;;;;3.58;0.93;;;;;;;19.80;48.26;101355.31;5031433;28;20373;-70
2022/09/17 03:53:32;;;;;;;3.78;1.08;;;;;;;19.81;48.08;101360.50;5032246;28;20032;-69
2022/09/17 03:55:59;;;;;;;3.58;0.75;;;;;;;19.80;48.04;101364.09;5031585;28;20029;-70
2022/09/17 03:58:26;;;;;;;3.45;0.90;;;;;;;19.78;48.15;101365.19;5031189;28;20029;-69
2022/09/17 04:00:52;;;;;;;4.32;1.10;;;;;;;19.80;48.08;101368.53;5030880;28;20029;-68
2022/09/17 04:03:18;;;;;;;4.47;0.95;;;;;;;19.77;47.92;101364.34;5030332;28;20029;-72
2022/09/17 04:05:43;;;;;;;3.03;0.90;;;;;;;19.81;47.99;101373.72;5031541;28;20036;-70
2022/09/17 04:08:08;;;;;;;3.72;0.80;;;;;;;19.81;47.86;101376.34;5030373;28;20112;-69
2022/09/17 04:10:33;;;;;;;3.10;0.80;;;;;;;19.79;48.00;101380.94;5030681;28;20034;-69
2022/09/17 04:12:59;;;;;;;3.10;0.73;;;;;;;19.72;47.75;101374.41;5031121;28;20292;-69
2022/09/17 04:15:24;;;;;;;3.33;0.90;;;;;;;19.77;47.71;101380.19;5032046;28;20033;-69
2022/09/17 04:17:49;;;;;;;4.68;1.15;;;;;;;19.76;47.85;101383.81;5030858;28;20262;-68
2022/09/17 04:20:14;;;;;;;2.57;0.80;;;;;;;19.77;47.97;101379.38;5031305;28;20029;-68
2022/09/17 04:22:40;;;;;;;3.38;0.90;;;;;;;19.71;47.81;101375.38;5030216;28;20270;-68
2022/09/17 04:25:06;;;;;;;4.28;0.80;;;;;;;19.71;47.99;101384.16;5030981;28;20041;-69
2022/09/17 04:27:31;;;;;;;2.63;0.80;;;;;;;19.72;47.67;101382.34;5031550;28;20061;-69
2022/09/17 04:29:57;;;;;;;4.00;0.80;;;;;;;19.75;48.04;101382.09;5030455;28;20039;-68
2022/09/17 04:32:22;;;;;;;3.78;0.80;;;;;;;19.67;48.04;101377.41;5031459;28;20277;-68
2022/09/17 04:34:47;;;;;;;3.47;0.85;;;;;;;19.75;47.58;101390.88;5030844;28;20164;-69
2022/09/17 04:37:13;;;;;;;8.93;1.47;;;;;;;19.73;47.85;101379.59;5032907;28;20115;-71
2022/09/17 04:39:38;;;;;;;3.17;0.90;;;;;;;19.69;47.74;101377.31;5031897;28;20263;-69
2022/09/17 04:42:03;;;;;;;3.72;0.80;;;;;;;19.78;47.40;101389.00;5032738;28;20029;-70
2022/09/17 04:44:29;;;;;;;3.28;0.82;;;;;;;19.71;47.83;101389.44;5033184;28;20098;-69
2022/09/17 04:46:55;;;;;;;3.50;0.80;;;;;;;19.76;47.68;101410.28;5032472;28;20072;-69
2022/09/17 04:49:20;;;;;;;5.47;0.77;;;;;;;19.70;47.66;101398.34;5032500;28;20269;-70
2022/09/17 04:51:45;;;;;;;1.73;0.60;;;;;;;19.69;47.86;101399.31;5029603;28;20029;-70
2022/09/17 04:54:10;;;;;;;3.25;0.93;;;;;;;19.71;47.75;101383.28;5030879;28;20265;-70
2022/09/17 04:56:36;;;;;;;3.53;0.90;;;;;;;19.70;47.61;101376.34;5030709;28;20030;-69
2022/09/17 04:59:01;;;;;;;3.67;0.97;;;;;;;19.69;47.79;101383.44;5029749;28;20029;-69
2022/09/17 05:01:26;;;;;;;4.82;1.30;;;;;;;19.70;47.88;101379.81;5031128;28;20265;-69
2022/09/17 05:03:51;;;;;;;3.83;0.85;;;;;;;19.71;47.77;101383.28;5031080;28;20029;-70
2022/09/17 05:06:17;;;;;;;2.90;0.90;;;;;;;19.69;47.88;101379.94;5030931;28;20079;-69
2022/09/17 05:08:42;;;;;;;3.20;0.70;;;;;;;19.71;47.80;101388.59;5030706;28;20254;-70
2022/09/17 05:11:07;;;;;;;3.25;0.68;;;;;;;19.73;47.62;101397.25;5029369;28;20309;-71
2022/09/17 05:13:33;;;;;;;3.90;0.80;;;;;;;19.74;47.77;101398.91;5029141;28;20485;-70
2022/09/17 05:15:58;;;;;;;4.32;1.10;;;;;;;19.68;47.82;101396.78;5030687;28;20029;-69
2022/09/17 05:18:24;;;;;;;4.13;1.10;;;;;;;19.69;47.49;101401.09;5029300;28;20090;-69
2022/09/17 05:20:49;;;;;;;3.05;0.77;;;;;;;19.66;47.87;101409.28;5032673;28;20135;-69
2022/09/17 05:23:14;;;;;;;4.25;0.90;;;;;;;19.53;47.71;101388.25;5033959;28;20033;-69
2022/09/17 05:25:40;;;;;;;3.50;0.90;;;;;;;19.63;47.79;101402.44;5034556;28;20200;-71
2022/09/17 05:28:05;;;;;;;3.60;0.98;;;;;;;19.66;47.74;101414.56;5033932;28;20262;-70
2022/09/17 05:30:31;;;;;;;2.58;0.70;;;;;;;19.61;47.60;101409.63;5034108;28;20030;-70
2022/09/17 05:33:05;;;;;;;3.17;0.80;;;;;;;19.66;47.51;101422.50;5033814;28;20461;-70
2022/09/17 05:35:32;;;;;;;2.15;0.70;;;;;;;19.67;47.77;101419.72;5033522;28;20469;-69
2022/09/17 05:38:03;;;;;;;4.22;0.80;;;;;;;19.63;47.82;101420.94;5033860;28;20102;-70
2022/09/17 05:40:29;;;;;;;5.93;0.90;;;;;;;19.63;47.77;101425.38;5034367;28;20116;-75
2022/09/17 05:43:03;;;;;;;5.45;0.82;;;;;;;19.61;47.88;101416.72;5033448;28;20560;-74
2022/09/17 05:45:28;;;;;;;;;;;;;;;19.67;48.03;101426.84;5035238;28;20037;-70
2022/09/17 05:47:55;;;;;;;3.15;0.80;;;;;;;19.72;48.22;101416.72;5033941;28;20059;-70
2022/09/17 05:50:21;;;;;;;3.17;0.85;;;;;;;19.76;48.16;101420.84;5034031;28;20021;-67
2022/09/17 05:52:46;;;;;;;2.45;0.68;;;;;;;19.75;47.88;101416.47;5033516;28;20112;-67
2022/09/17 05:55:12;;;;;;;3.30;0.90;;;;;;;19.73;48.24;101423.72;5034399;28;20424;-70
2022/09/17 05:57:37;;;;;;;2.78;0.85;;;;;;;19.77;48.15;101432.25;5033451;28;20357;-69
2022/09/17 06:00:04;;;;;;;6.32;1.05;;;;;;;19.75;48.33;101435.81;5033793;28;20543;-74
2022/09/17 06:02:29;;;;;;;3.95;0.80;;;;;;;19.78;47.68;101449.81;5032228;28;20091;-69
2022/09/17 06:04:54;;;;;;;3.75;0.82;;;;;;;19.72;48.34;101453.75;5034165;28;20484;-69
2022/09/17 06:07:19;;;;;;;2.92;0.90;;;;;;;19.71;48.64;101462.63;5033749;28;20116;-73
2022/09/17 06:09:45;;;;;;;3.60;0.80;;;;;;;19.73;48.47;101461.56;5033540;28;20842;-70
2022/09/17 06:12:10;;;;;;;3.55;0.90;;;;;;;19.74;48.99;101451.81;5033169;28;20274;-69
2022/09/17 06:14:35;;;;;;;3.60;0.82;;;;;;;19.78;48.72;101463.03;5033865;28;20030;-69
2022/09/17 06:17:01;;;;;;;5.57;1.27;;;;;;;19.78;48.52;101458.59;5033676;28;20037;-69
2022/09/17 06:19:26;;;;;;;3.33;0.90;;;;;;;19.77;48.78;101453.41;5033990;28;20038;-69
2022/09/17 06:21:51;;;;;;;4.10;0.88;;;;;;;19.82;48.56;101460.03;5033348;28;20041;-70
2022/09/17 06:24:17;;;;;;;4.97;1.02;;;;;;;19.85;48.34;101462.44;5032475;28;20128;-70
2022/09/17 06:26:42;;;;;;;3.43;0.87;;;;;;;19.84;48.54;101463.41;5033225;28;20732;-70
2022/09/17 06:29:07;;;;;;;5.30;0.90;;;;;;;19.85;48.67;101459.81;5033350;28;20259;-69
2022/09/17 06:31:32;;;;;;;4.07;1.00;;;;;;;19.80;48.82;101451.38;5033003;28;20281;-69
2022/09/17 06:34:01;;;;;;;4.28;0.88;;;;;;;19.83;48.43;101456.41;5033431;28;20313;-68
2022/09/17 06:36:26;;;;;;;5.13;1.20;;;;;;;19.88;48.53;101459.53;5033534;28;20033;-70
2022/09/17 06:38:51;;;;;;;4.43;0.97;;;;;;;19.88;48.42;101454.25;5033006;28;20033;-69
2022/09/17 06:41:17;;;;;;;4.47;1.10;;;;;;;19.84;48.41;101444.06;5032586;28;20762;-69
2022/09/17 06:43:42;;;;;;;3.60;0.90;;;;;;;19.89;48.42;101450.66;5033139;28;20033;-69
2022/09/17 06:46:09;;;;;;;2.97;1.00;;;;;;;19.91;48.43;101451.34;5033298;28;20031;-69
2022/09/17 06:48:35;;;;;;;4.60;1.17;;;;;;;19.93;48.53;101460.03;5033003;28;20029;-71
2022/09/17 06:51:03;;;;;;;3.72;0.90;;;;;;;19.95;48.58;101457.25;5032504;28;20083;-72
2022/09/17 06:53:30;;;;;;;2.80;0.80;;;;;;;19.92;48.85;101449.56;5032932;28;20029;-70
2022/09/17 06:55:57;;;;;;;5.28;1.10;;;;;;;19.94;48.66;101448.47;5032337;28;20029;-68
2022/09/17 06:58:23;;;;;;;4.07;0.98;;;;;;;19.94;48.77;101453.75;5032572;28;20092;-66
2022/09/17 07:00:49;;;;;;;4.47;1.20;;;;;;;19.94;48.93;101439.69;5032827;28;20034;-67
2022/09/17 07:03:14;;;;;;;5.25;1.00;;;;;;;19.94;48.88;101443.19;5032848;28;20455;-69
2022/09/17 07:05:42;;;;;;;4.97;0.93;;;;;;;20.00;49.10;101454.25;5032364;28;20029;-66
2022/09/17 07:08:09;;;;;;;3.38;0.85;;;;;;;19.96;49.10;101448.34;5032344;28;20374;-67
2022/09/17 07:10:35;;;;;;;3.17;0.88;;;;;;;20.03;49.02;101459.31;5032084;28;20033;-68
2022/09/17 07:13:00;;;;;;;4.20;1.10;;;;;;;20.05;49.07;101462.66;5032282;28;20041;-70
2022/09/17 07:15:25;;;;;;;3.13;0.80;;;;;;;20.07;49.05;101464.19;5032005;28;20029;-67
2022/09/17 07:17:51;;;;;;;6.93;1.30;;;;;;;20.06;48.99;101454.59;5032284;28;20047;-67
2022/09/17 07:20:16;;;;;;;4.13;0.90;;;;;;;20.07;48.89;101458.91;5032598;28;20667;-65
2022/09/17 07:22:42;;;;;;;2.50;0.88;;;;;;;20.12;48.95;101463.84;5032068;28;20481;-66
2022/09/17 07:25:08;;;;;;;3.80;0.90;;;;;;;20.12;49.16;101461.19;5031994;28;20052;-66
2022/09/17 07:27:33;;;;;;;5.22;1.00;;;;;;;20.13;48.91;101464.69;5031968;28;20140;-67
2022/09/17 07:29:58;;;;;;;4.50;1.10;;;;;;;20.11;48.78;101465.66;5031807;28;20132;-67
2022/09/17 07:32:24;;;;;;;3.78;0.80;;;;;;;20.18;48.93;101470.47;5032047;28;20053;-69
2022/09/17 07:34:50;;;;;;;3.33;1.02;;;;;;;20.21;49.01;101473.69;5032212;28;20036;-67
2022/09/17 07:37:16;;;;;;;4.10;0.90;;;;;;;20.22;48.93;101456.00;5031837;28;20187;-68
2022/09/17 07:39:41;;;;;;;5.03;0.98;;;;;;;20.24;48.88;101464.69;5031369;28;20051;-69
2022/09/17 07:42:07;;;;;;;3.40;0.70;;;;;;;20.24;48.90;101456.72;5030612;28;20054;-69
2022/09/17 07:44:32;;;;;;;6.22;1.00;;;;;;;20.27;48.71;101459.13;5030528;28;20525;-78
2022/09/17 07:47:00;;;;;;;4.63;0.85;;;;;;;20.24;49.09;101459.38;5032002;28;20033;-81
2022/09/17 07:49:25;;;;;;;4.47;0.80;;;;;;;20.26;49.02;101460.91;5030187;28;20033;-83
2022/09/17 07:51:51;;;;;;;4.18;1.20;;;;;;;20.15;49.35;101445.06;5030923;28;20040;-79
2022/09/17 07:54:16;;;;;;;2.78;0.80;;;;;;;20.23;49.15;101463.81;5030754;28;20433;-80
2022/09/17 07:56:41;;;;;;;3.97;0.80;;;;;;;20.23;48.97;101453.22;5030950;28;20049;-80
2022/09/17 07:59:08;;;;;;;3.70;0.88;;;;;;;20.24;48.69;101449.63;5030125;28;20532;-80
2022/09/17 08:01:35;;;;;;;7.07;0.98;;;;;;;20.28;48.88;101460.78;5030517;28;20038;-73
2022/09/17 08:04:01;;;;;;;6.43;0.95;;;;;;;20.29;48.92;101465.97;5029498;28;20036;-78
2022/09/17 08:06:27;;;;;;;3.17;0.90;;;;;;;20.27;48.56;101456.50;5028728;28;20820;-77
2022/09/17 08:08:53;;;;;;;4.90;1.00;;;;;;;20.33;48.93;101456.00;5030775;28;20081;-78
2022/09/17 08:11:21;;;;;;;4.75;0.95;;;;;;;20.43;48.44;101453.44;5030146;28;20060;-75
2022/09/17 08:13:48;;;;;;;4.00;0.80;;;;;;;20.48;48.15;101461.84;5030706;28;20120;-72
2022/09/17 08:16:14;;;;;;;4.10;0.73;;;;;;;20.51;48.23;101458.94;5030565;28;20033;-74
2022/09/17 08:18:42;;;;;;;3.72;1.13;;;;;;;20.58;47.96;101457.47;5030440;28;20036;-78
2022/09/17 08:21:11;;;;;;;2.13;0.52;;;;;;;20.62;48.00;101458.91;5030522;28;20032;-75
2022/09/17 08:23:38;;;;;;;4.05;0.90;;;;;;;20.68;47.82;101467.34;5021431;28;21007;-70
2022/09/17 08:26:07;;;;;;;2.55;0.80;;;;;;;20.62;47.78;101469.50;5030403;28;20048;-70
2022/09/17 08:28:33;;;;;;;4.15;0.70;;;;;;;20.61;47.97;101465.16;5030347;28;20041;-70
2022/09/17 08:31:07;;;;;;;4.10;0.93;;;;;;;20.61;48.16;101462.50;5030129;28;20040;-75
2022/09/17 08:33:34;;;;;;;4.13;1.05;;;;;;;20.64;48.09;101461.44;5030818;28;20535;-78
2022/09/17 08:36:00;;;;;;;3.05;0.90;;;;;;;20.69;48.16;101458.44;5030096;28;20033;-78
2022/09/17 08:38:26;;;;;;;5.32;0.95;;;;;;;20.72;47.98;101471.41;5030575;28;20055;-78
2022/09/17 08:41:01;;;;;;;4.13;0.98;;;;;;;20.75;47.96;101466.69;5030010;28;20420;-78
2022/09/17 08:43:30;;;;;;;3.63;0.60;;;;;;;20.76;47.71;101470.19;5030800;28;20428;-77
2022/09/17 08:45:57;;;;;;;3.50;0.90;;;;;;;20.78;47.65;101470.91;5030734;28;20017;-76
2022/09/17 08:48:27;;;;;;;3.00;0.70;;;;;;;20.76;47.95;101460.44;5030471;28;20147;-78
2022/09/17 08:50:52;;;;;;;3.80;0.77;;;;;;;20.84;47.91;101473.88;5030340;28;20128;-77
2022/09/17 08:53:26;;;;;;;4.25;0.90;;;;;;;20.84;47.38;101483.66;5029800;28;20112;-74
2022/09/17 08:56:06;;;;;;;3.03;0.60;;;;;;;20.88;47.76;101481.59;5034485;28;20033;-77
2022/09/17 08:58:38;;;;;;;4.07;0.73;;;;;;;20.87;47.26;101467.50;5033273;28;20125;-76
2022/09/17 09:01:19;;;;;;;4.35;0.77;;;;;;;20.83;47.55;101466.91;5034619;28;20086;-72
2022/09/17 09:04:01;;;;;;;4.65;0.80;;;;;;;20.86;47.78;101480.88;5033980;28;20029;-75
2022/09/17 09:06:33;;;;;;;6.40;0.88;;;;;;;20.83;47.63;101476.66;5034928;28;20064;-73
2022/09/17 09:09:10;;;;;;;3.47;0.70;;;;;;;20.90;47.35;101472.53;5035253;28;20614;-72
2022/09/17 09:11:36;;;;;;;2.58;0.70;;;;;;;20.89;47.53;101480.63;5034087;28;20037;-73
2022/09/17 09:14:28;;;;;;;4.78;0.90;;;;;;;20.89;47.66;101492.06;5033741;28;20090;-75
2022/09/17 09:16:55;;;;;;;3.20;0.80;;;;;;;20.86;47.40;101487.00;5034060;28;20025;-74
2022/09/17 09:19:23;;;;;;;2.47;0.68;;;;;;;20.86;47.83;101489.66;5033784;28;20025;-75
2022/09/17 09:22:17;;;;;;;3.00;0.70;;;;;;;20.89;47.47;101477.97;5033614;28;20052;-72
2022/09/17 09:25:17;;;;;;;3.72;0.70;;;;;;;20.94;47.77;101484.56;5033664;28;20041;-72
2022/09/17 09:27:48;;;;;;;4.72;0.80;;;;;;;21.00;47.69;101492.00;5033711;28;20571;-71
2022/09/17 09:30:15;;;;;;;4.00;0.88;;;;;;;21.00;47.85;101489.34;5034097;28;20037;-69
2022/09/17 09:32:43;;;;;;;4.72;0.90;;;;;;;20.97;47.76;101491.44;5033524;28;20033;-73
2022/09/17 09:35:18;;;;;;;3.03;0.82;;;;;;;20.93;48.10;101474.91;5033047;28;20033;-74
2022/09/17 09:37:51;;;;;;;5.32;1.10;;;;;;;21.01;47.66;101477.78;5033312;28;20040;-77
2022/09/17 09:40:38;;;;;;;5.77;1.10;;;;;;;21.02;47.88;101479.44;5034673;28;20038;-75
2022/09/17 09:43:13;;;;;;;4.88;0.90;;;;;;;21.00;48.12;101491.16;5034150;28;20324;-70
2022/09/17 09:45:58;;;;;;;8.05;0.88;;;;;;;20.97;47.88;101488.78;5033815;28;20025;-77
2022/09/17 09:48:32;;;;;;;;;;;;;;;20.97;48.10;101488.78;5033586;28;20021;-74
2022/09/17 09:51:36;;;;;;;3.25;0.70;;;;;;;21.00;47.83;101486.69;5033438;28;20345;-75
2022/09/17 09:54:23;;;;;;;4.03;0.75;;;;;;;21.02;47.74;101497.19;5033062;28;20358;-74
2022/09/17 09:57:04;;;;;;;4.18;0.63;;;;;;;21.01;48.05;101485.75;5033161;28;20033;-73
2022/09/17 09:59:30;;;;;;;3.03;0.60;;;;;;;21.04;47.22;101495.22;5032882;28;20663;-75
2022/09/17 10:01:55;;;;;;;1.10;0.52;;;;;;;21.01;47.65;101474.28;5032918;28;20116;-77
2022/09/17 10:04:26;;;;;;;3.23;0.77;;;;;;;21.06;47.30;101493.31;5032693;28;20381;-76
2022/09/17 10:06:54;;;;;;;2.88;0.80;;;;;;;21.00;47.54;101489.34;5031781;28;20366;-73
2022/09/17 10:09:21;;;;;;;3.60;0.60;;;;;;;21.04;47.22;101489.09;5032523;28;20045;-74
2022/09/17 10:11:58;;;;;;;2.50;0.60;;;;;;;21.04;47.10;101491.75;5023644;28;21225;-74
2022/09/17 10:14:26;;;;;;;3.33;0.80;;;;;;;21.07;47.08;101492.31;5032890;28;20469;-72
2022/09/17 10:17:20;;;;;;;5.95;0.73;;;;;;;21.08;47.03;101496.66;5032595;28;20354;-74
2022/09/17 10:20:10;;;;;;;8.55;1.20;;;;;;;21.07;47.38;101478.25;5032865;28;20025;-73
2022/09/17 10:22:39;;;;;;;4.47;0.82;;;;;;;21.06;46.82;101477.41;5032144;28;20029;-73
2022/09/17 10:25:16;;;;;;;3.40;0.80;;;;;;;21.10;47.23;101486.75;5032599;28;20038;-73
2022/09/17 10:27:44;;;;;;;2.65;0.57;;;;;;;21.08;46.82;101477.25;5032229;28;20041;-75
2022/09/17 10:30:16;;;;;;;4.18;0.65;;;;;;;21.13;46.34;101483.03;5032640;28;20153;-74
2022/09/17 10:32:41;;;;;;;3.50;0.90;;;;;;;21.12;46.51;101479.53;5032805;28;20063;-64
2022/09/17 10:35:15;;;;;;;3.20;0.82;;;;;;;21.15;47.13;101478.44;5031866;28;20033;-65
2022/09/17 10:37:46;;;;;;;4.90;0.93;;;;;;;21.12;47.12;101478.69;5032144;28;20041;-63
2022/09/17 10:40:17;;;;;;;3.53;0.70;;;;;;;21.10;46.87;101478.81;5033108;28;20083;-65
2022/09/17 10:42:44;;;;;;;2.88;0.70;;;;;;;21.05;47.05;101488.97;5033776;28;20029;-67
2022/09/17 10:45:29;;;;;;;3.35;0.90;;;;;;;20.99;47.29;101492.13;5032204;28;20022;-64
2022/09/17 10:47:56;;;;;;;1.95;0.63;;;;;;;20.93;47.33;101477.56;5033158;28;20029;-66
2022/09/17 10:50:30;;;;;;;5.50;0.80;;;;;;;20.89;47.61;101481.47;5032042;28;20032;-78
2022/09/17 10:53:00;;;;;;;5.30;0.98;;;;;;;20.90;47.63;101485.78;5030485;28;20124;-75
2022/09/17 10:55:29;;;;;;;4.72;0.90;;;;;;;20.93;47.91;101493.47;5032194;28;20068;-77
2022/09/17 10:58:06;;;;;;;8.18;0.90;;;;;;;20.94;47.77;101489.84;5032564;28;20119;-76
2022/09/17 11:00:43;;;;;;;9.20;2.17;;;;;;;20.95;48.29;101480.94;5031894;28;20520;-77
2022/09/17 11:03:50;;;;;;;7.07;1.50;;;;;;;20.99;48.46;101482.34;5023178;28;20044;-74
2022/09/17 11:06:30;;;;;;;5.93;1.10;;;;;;;21.00;48.02;101478.75;5030279;28;20025;-77
2022/09/17 11:09:01;;;;;;;5.78;1.27;;;;;;;21.08;48.65;101486.06;5031670;28;20049;-73
2022/09/17 11:12:00;;;;;;;5.90;1.20;;;;;;;21.11;48.43;101475.22;5031764;28;20499;-75
2022/09/17 11:14:38;;;;;;;7.18;1.42;;;;;;;21.16;48.32;101477.47;5031758;28;20036;-75
2022/09/17 11:17:34;;;;;;;5.88;1.33;;;;;;;21.18;48.49;101479.00;5029460;28;20033;-75
2022/09/17 11:20:25;;;;;;;10.60;1.52;;;;;;;21.17;48.39;101472.03;5031426;28;20922;-73
2022/09/17 11:23:41;;;;;;;4.28;1.00;;;;;;;21.20;48.06;101469.13;5046209;28;20496;-73
2022/09/17 11:26:15;;;;;;;7.00;1.20;;;;;;;21.14;48.18;101467.00;5026026;28;20223;-71
2022/09/17 11:28:47;;;;;;;;;;;;;;;21.11;48.54;101474.34;5031542;28;21161;-70
2022/09/17 11:31:30;;;;;;;6.60;1.35;;;;;;;21.02;48.38;101462.72;5031059;28;20000;-70
2022/09/17 11:34:22;;;;;;;6.68;1.23;;;;;;;21.04;48.64;101462.59;5031002;28;20029;-68
2022/09/17 11:37:18;;;;;;;8.20;1.23;;;;;;;21.00;48.88;101467.31;5031429;28;20033;-69
2022/09/17 11:39:59;;;;;;;6.80;1.40;;;;;;;21.00;49.08;101462.03;5030415;28;20036;-73
2022/09/17 11:42:32;;;;;;;7.05;1.83;;;;;;;21.05;49.76;101464.28;5031328;28;20037;-76
2022/09/17 11:45:05;;;;;;;7.97;1.90;;;;;;;21.10;50.25;101457.63;5031558;28;20083;-76